SAZSSABE

Guest
Details From SAZS - SAN CARLOS DE BARILOCHE
To SABE - Aeroparque Jorge Newbery
Flight Number -
Tags decoded
Created
Modified
Stats Distance 721 nm / 1,336 km
Max Altitude 0 ft / 0 m
Waypoints 2
Social Downloads 3
Likes 0
Share VATSIM

Download

Looking for another format? Having issues loading an existing format? Contact us
Advertisement - Login to hide

Notes

Requested: SAZS SABE

Route

SAZS SABE

ID Type Via Altitude Latitude Longitude Leg Dist Tot Dist Heading (true) Name
O SAZS APT - 0 ft / 0 m -41.15117˚ -71.15754˚ - 0 nm - SAN CARLOS DE BARILOCHE
O SABE APT - 0 ft / 0 m -34.55941˚ -58.41575˚ 721 nm 721 nm 61° / 53° Aeroparque Jorge Newbery

Altitude Profile

Advertisement - Login to hide

Weather


0- 5 10 15 20 25 30 35+ Temperature / ° C

Clouds and Precipitation
Forecast for 2017-12-15 18:00 UTC. Updated 43 minutes ago

Ground ~20,000 ft ~40,000 ft Winds

SAZS

Details ICAO SAZS (BRC)
Name SAN CARLOS DE BARILOCHE
Region Argentina
Timezone America/Argentina/Salta (UTC-3.0)
Stats Elevation 2,776 ft / 846 m (AMSL)
Location -41.151172° -71.157541°
Runways 1
Magnetic Variation 6.658° E

METAR

SAZS 151800Z 32025G35 KT 9999 SCT016 BKN050 BKN070 18/08 Q1009

Decode

TAF

TAF SAZS 151700Z 1518/1618 29025KT 9999 SCT015 BKN040 BKN060 TX18/1520Z TN05/1609Z TEMPO 1518/1602 8000 -RA BKN020 OVC060 BECMG 1605/1607 29025G40KT 4000 SHRA BKN015 SCT030TCU OVC060 BECMG 1613/1615 29020G30KT 9999 NSW BKN020 BKN090

Decode

Departure Runways

ID Width Length Bearing (true) Bearing (mag) Surface Threshold Offset Overrun Length
11 157 ft / 48 m 7,693 ft / 2,345 m 114.70° 108.04° Asphalt 0 ft / 0 m 0 ft / 0 m
29 157 ft / 48 m 7,693 ft / 2,345 m 294.68° 288.02° Asphalt 0 ft / 0 m 0 ft / 0 m

SABE

Details ICAO SABE (AEP)
Name Aeroparque Jorge Newbery
Region Argentina
Timezone Unknown (UTC+0.0)
Stats Elevation 17 ft / 5 m (AMSL)
Location -34.559414° -58.415749°
Runways 1
Magnetic Variation 8.981° W

METAR

SABE 151800Z 04007KT 9999 FEW020 31/20 Q1008

Decode

TAF

TAF SABE 151700Z 1518/1618 03010KT CAVOK TX35/1618Z TN25/1608Z BECMG 1609/1611 02015G30KT BECMG 1615/1617 SCT035

Decode

Destination Runways

ID Width Length Bearing (true) Bearing (mag) Surface Threshold Offset Overrun Length
13 131 ft / 40 m 6,882 ft / 2,098 m 123.87° 132.85° Concrete 0 ft / 0 m 791 ft / 241 m
31 131 ft / 40 m 6,882 ft / 2,098 m 303.86° 312.84° Concrete 991 ft / 302 m 0 ft / 0 m

Approach Navaids

Runway Type Ident Frequency Range Bearing (true) Bearing (mag) Slope Elevation
13 Localiser AE 109.50 MHz 18 nm / 33 km 123.95° 132.94° - 17 ft / 5 m (AMSL)
13 Glidescope AE 109.50 MHz 10 nm / 19 km 124.47° 133.45° 3.00° 17 ft / 5 m (AMSL)
13 DME AE 109.50 MHz 18 nm / 33 km - - - 17 ft / 5 m (AMSL)

Popular Alternatives